sensor_id;sensor_type;location;lat;lon;timestamp;pressure;altitude;pressure_sealevel;temperature;humidity
52839;BME280;39219;53.678;9.856;2022-12-18T00:01:20;102686.50;;;-6.08;100.00
52839;BME280;39219;53.678;9.856;2022-12-18T00:03:47;102681.25;;;-6.32;100.00
52839;BME280;39219;53.678;9.856;2022-12-18T00:06:14;102685.53;;;-6.55;100.00
52839;BME280;39219;53.678;9.856;2022-12-18T00:08:41;102677.94;;;-6.53;100.00
52839;BME280;39219;53.678;9.856;2022-12-18T00:11:12;102684.16;;;-6.40;100.00
52839;BME280;39219;53.678;9.856;2022-12-18T00:13:39;102677.25;;;-6.51;100.00
52839;BME280;39219;53.678;9.856;2022-12-18T00:16:07;102680.03;;;-6.60;100.00
52839;BME280;39219;53.678;9.856;2022-12-18T00:18:34;102680.00;;;-6.72;100.00
52839;BME280;39219;53.678;9.856;2022-12-18T00:21:02;102686.72;;;-6.74;100.00
52839;BME280;39219;53.678;9.856;2022-12-18T00:23:30;102693.16;;;-6.68;100.00
52839;BME280;39219;53.678;9.856;2022-12-18T00:25:59;102708.66;;;-6.68;100.00
52839;BME280;39219;53.678;9.856;2022-12-18T00:28:27;102715.19;;;-6.62;100.00
52839;BME280;39219;53.678;9.856;2022-12-18T00:31:00;102720.66;;;-6.47;100.00
52839;BME280;39219;53.678;9.856;2022-12-18T00:33:27;102707.72;;;-6.47;100.00
52839;BME280;39219;53.678;9.856;2022-12-18T00:35:53;102701.19;;;-6.53;100.00
52839;BME280;39219;53.678;9.856;2022-12-18T00:38:19;102697.28;;;-6.48;100.00
52839;BME280;39219;53.678;9.856;2022-12-18T00:40:46;102698.41;;;-6.45;100.00
52839;BME280;39219;53.678;9.856;2022-12-18T00:43:12;102701.06;;;-6.33;100.00
52839;BME280;39219;53.678;9.856;2022-12-18T00:45:39;102693.88;;;-6.25;100.00
52839;BME280;39219;53.678;9.856;2022-12-18T00:48:06;102697.91;;;-6.29;100.00
52839;BME280;39219;53.678;9.856;2022-12-18T00:50:32;102701.09;;;-6.21;100.00
52839;BME280;39219;53.678;9.856;2022-12-18T00:52:59;102704.88;;;-6.28;100.00
52839;BME280;39219;53.678;9.856;2022-12-18T00:55:25;102706.81;;;-6.25;100.00
52839;BME280;39219;53.678;9.856;2022-12-18T00:57:52;102707.38;;;-6.51;100.00
52839;BME280;39219;53.678;9.856;2022-12-18T01:00:18;102713.19;;;-6.76;100.00
52839;BME280;39219;53.678;9.856;2022-12-18T01:02:46;102701.34;;;-6.85;100.00
52839;BME280;39219;53.678;9.856;2022-12-18T01:05:13;102702.59;;;-7.02;100.00
52839;BME280;39219;53.678;9.856;2022-12-18T01:07:40;102701.47;;;-7.05;100.00
52839;BME280;39219;53.678;9.856;2022-12-18T01:10:08;102700.34;;;-7.19;100.00
52839;BME280;39219;53.678;9.856;2022-12-18T01:12:35;102694.88;;;-7.02;100.00
52839;BME280;39219;53.678;9.856;2022-12-18T01:15:03;102699.06;;;-6.92;100.00
52839;BME280;39219;53.678;9.856;2022-12-18T01:17:29;102700.47;;;-6.85;100.00
52839;BME280;39219;53.678;9.856;2022-12-18T01:19:57;102700.03;;;-6.79;100.00
52839;BME280;39219;53.678;9.856;2022-12-18T01:22:24;102699.44;;;-6.87;100.00
52839;BME280;39219;53.678;9.856;2022-12-18T01:24:50;102687.81;;;-6.82;100.00
52839;BME280;39219;53.678;9.856;2022-12-18T01:27:17;102699.25;;;-7.01;100.00
52839;BME280;39219;53.678;9.856;2022-12-18T01:29:43;102699.19;;;-7.12;100.00
52839;BME280;39219;53.678;9.856;2022-12-18T01:32:10;102700.06;;;-7.12;100.00
52839;BME280;39219;53.678;9.856;2022-12-18T01:34:36;102709.75;;;-7.09;100.00
52839;BME280;39219;53.678;9.856;2022-12-18T01:37:04;102718.00;;;-7.03;100.00
52839;BME280;39219;53.678;9.856;2022-12-18T01:39:31;102716.47;;;-7.11;100.00
52839;BME280;39219;53.678;9.856;2022-12-18T01:41:58;102715.56;;;-7.12;100.00
52839;BME280;39219;53.678;9.856;2022-12-18T01:45:00;102723.72;;;-7.18;100.00
52839;BME280;39219;53.678;9.856;2022-12-18T01:47:31;102726.94;;;-7.20;100.00
52839;BME280;39219;53.678;9.856;2022-12-18T01:50:00;102731.22;;;-7.21;100.00
52839;BME280;39219;53.678;9.856;2022-12-18T01:52:31;102730.94;;;-7.14;100.00
52839;BME280;39219;53.678;9.856;2022-12-18T01:54:58;102734.84;;;-7.19;100.00
52839;BME280;39219;53.678;9.856;2022-12-18T01:57:27;102739.09;;;-7.19;100.00
52839;BME280;39219;53.678;9.856;2022-12-18T01:59:57;102733.03;;;-7.20;100.00
52839;BME280;39219;53.678;9.856;2022-12-18T02:02:26;102733.41;;;-7.25;100.00
52839;BME280;39219;53.678;9.856;2022-12-18T02:04:54;102732.19;;;-7.31;100.00
52839;BME280;39219;53.678;9.856;2022-12-18T02:07:26;102728.25;;;-7.25;100.00
52839;BME280;39219;53.678;9.856;2022-12-18T02:09:59;102727.38;;;-7.26;100.00
52839;BME280;39219;53.678;9.856;2022-12-18T02:12:31;102734.34;;;-7.25;100.00
52839;BME280;39219;53.678;9.856;2022-12-18T02:15:06;102741.06;;;-7.27;100.00
52839;BME280;39219;53.678;9.856;2022-12-18T02:17:39;102745.09;;;-7.31;100.00
52839;BME280;39219;53.678;9.856;2022-12-18T02:20:13;102748.06;;;-7.57;100.00
52839;BME280;39219;53.678;9.856;2022-12-18T02:22:46;102745.78;;;-7.64;100.00
52839;BME280;39219;53.678;9.856;2022-12-18T02:25:30;102754.31;;;-7.76;100.00
52839;BME280;39219;53.678;9.856;2022-12-18T02:28:02;102751.34;;;-7.80;100.00
52839;BME280;39219;53.678;9.856;2022-12-18T02:30:33;102767.31;;;-7.84;100.00
52839;BME280;39219;53.678;9.856;2022-12-18T02:33:00;102755.59;;;-8.01;100.00
52839;BME280;39219;53.678;9.856;2022-12-18T02:35:30;102744.50;;;-8.00;100.00
52839;BME280;39219;53.678;9.856;2022-12-18T02:37:57;102753.78;;;-7.92;100.00
52839;BME280;39219;53.678;9.856;2022-12-18T02:40:26;102750.31;;;-7.82;100.00
52839;BME280;39219;53.678;9.856;2022-12-18T02:42:53;102745.81;;;-7.75;100.00
52839;BME280;39219;53.678;9.856;2022-12-18T02:45:21;102750.97;;;-7.64;100.00
52839;BME280;39219;53.678;9.856;2022-12-18T02:47:49;102745.78;;;-7.64;100.00
52839;BME280;39219;53.678;9.856;2022-12-18T02:50:19;102748.50;;;-7.63;100.00
52839;BME280;39219;53.678;9.856;2022-12-18T02:52:56;102748.84;;;-7.48;100.00
52839;BME280;39219;53.678;9.856;2022-12-18T02:55:30;102750.13;;;-7.53;100.00
52839;BME280;39219;53.678;9.856;2022-12-18T02:58:04;102743.84;;;-7.56;100.00
52839;BME280;39219;53.678;9.856;2022-12-18T03:00:36;102749.50;;;-7.50;100.00
52839;BME280;39219;53.678;9.856;2022-12-18T03:03:07;102758.78;;;-7.42;100.00
52839;BME280;39219;53.678;9.856;2022-12-18T03:05:39;102766.91;;;-7.48;100.00
52839;BME280;39219;53.678;9.856;2022-12-18T03:08:09;102766.53;;;-7.42;100.00
52839;BME280;39219;53.678;9.856;2022-12-18T03:10:42;102764.31;;;-7.48;100.00
52839;BME280;39219;53.678;9.856;2022-12-18T03:13:13;102751.84;;;-7.64;100.00
52839;BME280;39219;53.678;9.856;2022-12-18T03:15:44;102755.72;;;-7.69;100.00
52839;BME280;39219;53.678;9.856;2022-12-18T03:18:13;102752.78;;;-7.74;100.00
52839;BME280;39219;53.678;9.856;2022-12-18T03:20:44;102755.47;;;-7.93;100.00
52839;BME280;39219;53.678;9.856;2022-12-18T03:23:15;102758.97;;;-7.82;100.00
52839;BME280;39219;53.678;9.856;2022-12-18T03:25:44;102762.06;;;-7.86;100.00
52839;BME280;39219;53.678;9.856;2022-12-18T03:28:14;102760.50;;;-7.94;100.00
52839;BME280;39219;53.678;9.856;2022-12-18T03:30:44;102760.75;;;-7.91;100.00
52839;BME280;39219;53.678;9.856;2022-12-18T03:33:14;102763.09;;;-7.94;100.00
52839;BME280;39219;53.678;9.856;2022-12-18T03:35:45;102759.22;;;-7.99;100.00
52839;BME280;39219;53.678;9.856;2022-12-18T03:38:11;102762.56;;;-8.00;100.00
52839;BME280;39219;53.678;9.856;2022-12-18T03:40:45;102764.38;;;-7.89;100.00
52839;BME280;39219;53.678;9.856;2022-12-18T03:43:19;102766.97;;;-7.79;100.00
52839;BME280;39219;53.678;9.856;2022-12-18T03:45:52;102769.91;;;-7.74;100.00
52839;BME280;39219;53.678;9.856;2022-12-18T03:48:26;102763.97;;;-7.63;100.00
52839;BME280;39219;53.678;9.856;2022-12-18T03:50:57;102761.63;;;-7.49;100.00
52839;BME280;39219;53.678;9.856;2022-12-18T03:53:31;102759.16;;;-7.48;100.00
52839;BME280;39219;53.678;9.856;2022-12-18T03:56:00;102762.66;;;-7.47;100.00
52839;BME280;39219;53.678;9.856;2022-12-18T03:58:29;102760.72;;;-7.50;100.00
52839;BME280;39219;53.678;9.856;2022-12-18T04:01:01;102761.13;;;-7.55;100.00
52839;BME280;39219;53.678;9.856;2022-12-18T04:03:29;102765.13;;;-7.59;100.00
52839;BME280;39219;53.678;9.856;2022-12-18T04:05:58;102756.22;;;-7.52;100.00
52839;BME280;39219;53.678;9.856;2022-12-18T04:08:26;102753.91;;;-7.60;100.00
52839;BME280;39219;53.678;9.856;2022-12-18T04:10:53;102747.59;;;-7.63;100.00
52839;BME280;39219;53.678;9.856;2022-12-18T04:13:23;102753.41;;;-7.66;100.00
52839;BME280;39219;53.678;9.856;2022-12-18T04:15:50;102758.03;;;-7.62;100.00
52839;BME280;39219;53.678;9.856;2022-12-18T04:18:18;102754.94;;;-7.57;100.00
52839;BME280;39219;53.678;9.856;2022-12-18T04:20:45;102755.97;;;-7.55;100.00
52839;BME280;39219;53.678;9.856;2022-12-18T04:23:11;102751.59;;;-7.56;100.00
52839;BME280;39219;53.678;9.856;2022-12-18T04:25:37;102759.44;;;-7.55;100.00
52839;BME280;39219;53.678;9.856;2022-12-18T04:28:04;102762.28;;;-7.52;100.00
52839;BME280;39219;53.678;9.856;2022-12-18T04:30:30;102760.88;;;-7.48;100.00
52839;BME280;39219;53.678;9.856;2022-12-18T04:32:57;102754.78;;;-7.59;100.00
52839;BME280;39219;53.678;9.856;2022-12-18T04:35:25;102752.34;;;-7.57;100.00
52839;BME280;39219;53.678;9.856;2022-12-18T04:37:51;102753.91;;;-7.70;100.00
52839;BME280;39219;53.678;9.856;2022-12-18T04:40:18;102755.19;;;-7.75;100.00
52839;BME280;39219;53.678;9.856;2022-12-18T04:42:44;102754.06;;;-7.79;100.00
52839;BME280;39219;53.678;9.856;2022-12-18T04:45:11;102754.44;;;-7.84;100.00
52839;BME280;39219;53.678;9.856;2022-12-18T04:47:37;102750.19;;;-7.84;100.00
52839;BME280;39219;53.678;9.856;2022-12-18T04:50:04;102749.28;;;-7.84;100.00
52839;BME280;39219;53.678;9.856;2022-12-18T04:52:32;102755.59;;;-7.91;100.00
52839;BME280;39219;53.678;9.856;2022-12-18T04:54:59;102755.47;;;-7.93;100.00
52839;BME280;39219;53.678;9.856;2022-12-18T04:57:25;102756.00;;;-7.97;100.00
52839;BME280;39219;53.678;9.856;2022-12-18T04:59:52;102754.81;;;-8.00;100.00
52839;BME280;39219;53.678;9.856;2022-12-18T05:02:18;102766.19;;;-7.98;100.00
52839;BME280;39219;53.678;9.856;2022-12-18T05:04:45;102772.63;;;-8.04;100.00
52839;BME280;39219;53.678;9.856;2022-12-18T05:07:11;102776.63;;;-8.07;100.00
52839;BME280;39219;53.678;9.856;2022-12-18T05:09:39;102781.03;;;-7.96;100.00
52839;BME280;39219;53.678;9.856;2022-12-18T05:12:05;102784.59;;;-7.94;100.00
52839;BME280;39219;53.678;9.856;2022-12-18T05:14:32;102785.53;;;-7.93;100.00
52839;BME280;39219;53.678;9.856;2022-12-18T05:16:58;102779.84;;;-7.99;100.00
52839;BME280;39219;53.678;9.856;2022-12-18T05:19:25;102786.81;;;-7.98;100.00
52839;BME280;39219;53.678;9.856;2022-12-18T05:21:51;102800.22;;;-8.03;100.00
52839;BME280;39219;53.678;9.856;2022-12-18T05:24:18;102794.00;;;-8.15;100.00
52839;BME280;39219;53.678;9.856;2022-12-18T05:26:45;102792.84;;;-8.19;100.00
52839;BME280;39219;53.678;9.856;2022-12-18T05:29:12;102781.53;;;-8.10;100.00
52839;BME280;39219;53.678;9.856;2022-12-18T05:31:38;102786.69;;;-8.00;100.00
52839;BME280;39219;53.678;9.856;2022-12-18T05:34:05;102784.75;;;-7.92;100.00
52839;BME280;39219;53.678;9.856;2022-12-18T05:36:32;102795.94;;;-7.92;100.00
52839;BME280;39219;53.678;9.856;2022-12-18T05:38:58;102792.34;;;-7.94;100.00
52839;BME280;39219;53.678;9.856;2022-12-18T05:41:25;102804.22;;;-7.85;100.00
52839;BME280;39219;53.678;9.856;2022-12-18T05:43:53;102792.75;;;-7.68;100.00
52839;BME280;39219;53.678;9.856;2022-12-18T05:46:19;102793.00;;;-7.65;100.00
52839;BME280;39219;53.678;9.856;2022-12-18T05:48:46;102796.63;;;-7.63;100.00
52839;BME280;39219;53.678;9.856;2022-12-18T05:51:14;102803.19;;;-7.67;100.00
52839;BME280;39219;53.678;9.856;2022-12-18T05:53:42;102807.06;;;-7.72;100.00
52839;BME280;39219;53.678;9.856;2022-12-18T05:56:11;102807.56;;;-7.66;100.00
52839;BME280;39219;53.678;9.856;2022-12-18T05:58:39;102810.16;;;-7.66;100.00
52839;BME280;39219;53.678;9.856;2022-12-18T06:01:08;102808.88;;;-7.71;100.00
52839;BME280;39219;53.678;9.856;2022-12-18T06:03:35;102805.66;;;-7.68;100.00
52839;BME280;39219;53.678;9.856;2022-12-18T06:06:02;102803.34;;;-7.65;100.00
52839;BME280;39219;53.678;9.856;2022-12-18T06:08:29;102800.88;;;-7.64;100.00
52839;BME280;39219;53.678;9.856;2022-12-18T06:10:55;102806.19;;;-7.72;100.00
52839;BME280;39219;53.678;9.856;2022-12-18T06:13:22;102800.63;;;-7.67;100.00
52839;BME280;39219;53.678;9.856;2022-12-18T06:15:49;102796.63;;;-7.63;100.00
52839;BME280;39219;53.678;9.856;2022-12-18T06:18:16;102800.97;;;-7.52;100.00
52839;BME280;39219;53.678;9.856;2022-12-18T06:20:43;102795.31;;;-7.48;100.00
52839;BME280;39219;53.678;9.856;2022-12-18T06:23:09;102803.56;;;-7.41;100.00
52839;BME280;39219;53.678;9.856;2022-12-18T06:25:37;102807.84;;;-7.42;100.00
52839;BME280;39219;53.678;9.856;2022-12-18T06:28:04;102805.25;;;-7.42;100.00
52839;BME280;39219;53.678;9.856;2022-12-18T06:30:30;102817.50;;;-7.50;100.00
52839;BME280;39219;53.678;9.856;2022-12-18T06:32:57;102811.56;;;-7.49;100.00
52839;BME280;39219;53.678;9.856;2022-12-18T06:35:25;102811.44;;;-7.50;100.00
52839;BME280;39219;53.678;9.856;2022-12-18T06:37:51;102808.22;;;-7.48;100.00
52839;BME280;39219;53.678;9.856;2022-12-18T06:40:18;102804.47;;;-7.41;100.00
52839;BME280;39219;53.678;9.856;2022-12-18T06:42:44;102807.94;;;-7.51;100.00
52839;BME280;39219;53.678;9.856;2022-12-18T06:45:11;102810.78;;;-7.48;100.00
52839;BME280;39219;53.678;9.856;2022-12-18T06:47:40;102819.56;;;-7.46;100.00
52839;BME280;39219;53.678;9.856;2022-12-18T06:50:07;102824.47;;;-7.38;100.00
52839;BME280;39219;53.678;9.856;2022-12-18T06:52:34;102828.06;;;-7.36;100.00
52839;BME280;39219;53.678;9.856;2022-12-18T06:55:02;102828.84;;;-7.37;100.00
52839;BME280;39219;53.678;9.856;2022-12-18T06:57:29;102819.94;;;-7.31;100.00
52839;BME280;39219;53.678;9.856;2022-12-18T06:59:55;102823.44;;;-7.30;100.00
52839;BME280;39219;53.678;9.856;2022-12-18T07:02:22;102823.69;;;-7.37;100.00
52839;BME280;39219;53.678;9.856;2022-12-18T07:04:48;102816.34;;;-7.43;100.00
52839;BME280;39219;53.678;9.856;2022-12-18T07:07:15;102818.53;;;-7.37;100.00
52839;BME280;39219;53.678;9.856;2022-12-18T07:09:42;102823.84;;;-7.36;100.00
52839;BME280;39219;53.678;9.856;2022-12-18T07:12:09;102834.25;;;-7.24;100.00
52839;BME280;39219;53.678;9.856;2022-12-18T07:14:35;102829.59;;;-7.18;100.00
52839;BME280;39219;53.678;9.856;2022-12-18T07:17:02;102833.72;;;-7.09;100.00
52839;BME280;39219;53.678;9.856;2022-12-18T07:19:29;102833.59;;;-7.11;100.00
52839;BME280;39219;53.678;9.856;2022-12-18T07:21:55;102842.63;;;-7.06;100.00
52839;BME280;39219;53.678;9.856;2022-12-18T07:24:22;102844.94;;;-6.99;100.00
52839;BME280;39219;53.678;9.856;2022-12-18T07:26:50;102837.44;;;-6.95;100.00
52839;BME280;39219;53.678;9.856;2022-12-18T07:29:16;102845.97;;;-6.96;100.00
52839;BME280;39219;53.678;9.856;2022-12-18T07:31:42;102848.78;;;-6.93;100.00
52839;BME280;39219;53.678;9.856;2022-12-18T07:34:10;102849.94;;;-6.90;100.00
52839;BME280;39219;53.678;9.856;2022-12-18T07:36:37;102851.72;;;-6.89;100.00
52839;BME280;39219;53.678;9.856;2022-12-18T07:39:03;102846.81;;;-6.86;100.00
52839;BME280;39219;53.678;9.856;2022-12-18T07:41:30;102853.41;;;-6.79;100.00
52839;BME280;39219;53.678;9.856;2022-12-18T07:43:58;102861.94;;;-6.80;100.00
52839;BME280;39219;53.678;9.856;2022-12-18T07:46:25;102858.06;;;-6.75;100.00
52839;BME280;39219;53.678;9.856;2022-12-18T07:48:51;102859.31;;;-6.70;100.00
52839;BME280;39219;53.678;9.856;2022-12-18T07:51:18;102862.53;;;-6.62;100.00
52839;BME280;39219;53.678;9.856;2022-12-18T07:53:45;102869.59;;;-6.59;100.00
52839;BME280;39219;53.678;9.856;2022-12-18T07:56:12;102868.19;;;-6.56;100.00
52839;BME280;39219;53.678;9.856;2022-12-18T07:58:39;102870.88;;;-6.54;100.00
52839;BME280;39219;53.678;9.856;2022-12-18T08:01:08;102865.66;;;-6.44;100.00
52839;BME280;39219;53.678;9.856;2022-12-18T08:03:34;102865.91;;;-6.41;100.00
52839;BME280;39219;53.678;9.856;2022-12-18T08:06:02;102872.38;;;-6.13;100.00
52839;BME280;39219;53.678;9.856;2022-12-18T08:08:29;102865.34;;;-5.70;100.00
52839;BME280;39219;53.678;9.856;2022-12-18T08:10:56;102866.63;;;-5.07;100.00
52839;BME280;39219;53.678;9.856;2022-12-18T08:13:24;102861.44;;;-5.07;100.00
52839;BME280;39219;53.678;9.856;2022-12-18T08:15:56;102853.72;;;-5.29;100.00
52839;BME280;39219;53.678;9.856;2022-12-18T08:18:24;102852.78;;;-5.53;100.00
52839;BME280;39219;53.678;9.856;2022-12-18T08:20:51;102849.59;;;-5.73;100.00
52839;BME280;39219;53.678;9.856;2022-12-18T08:23:17;102850.84;;;-5.68;100.00
52839;BME280;39219;53.678;9.856;2022-12-18T08:25:44;102852.03;;;-5.74;100.00
52839;BME280;39219;53.678;9.856;2022-12-18T08:28:10;102846.28;;;-5.82;100.00
52839;BME280;39219;53.678;9.856;2022-12-18T08:30:37;102843.47;;;-5.85;100.00
52839;BME280;39219;53.678;9.856;2022-12-18T08:33:03;102840.38;;;-5.69;100.00
52839;BME280;39219;53.678;9.856;2022-12-18T08:35:34;102843.22;;;-5.54;100.00
52839;BME280;39219;53.678;9.856;2022-12-18T08:38:01;102843.91;;;-5.45;100.00
52839;BME280;39219;53.678;9.856;2022-12-18T08:40:27;102845.97;;;-5.29;100.00
52839;BME280;39219;53.678;9.856;2022-12-18T08:42:54;102853.63;;;-5.18;100.00
52839;BME280;39219;53.678;9.856;2022-12-18T08:45:38;102862.91;;;-5.10;100.00
52839;BME280;39219;53.678;9.856;2022-12-18T08:48:05;102863.81;;;-4.98;100.00
52839;BME280;39219;53.678;9.856;2022-12-18T08:50:32;102856.38;;;-4.93;100.00
52839;BME280;39219;53.678;9.856;2022-12-18T08:53:00;102857.63;;;-4.76;100.00
52839;BME280;39219;53.678;9.856;2022-12-18T08:55:26;102857.28;;;-4.69;100.00
52839;BME280;39219;53.678;9.856;2022-12-18T08:57:53;102861.41;;;-4.35;100.00
52839;BME280;39219;53.678;9.856;2022-12-18T09:00:19;102862.59;;;-3.81;100.00
52839;BME280;39219;53.678;9.856;2022-12-18T09:02:46;102860.34;;;-3.37;100.00
52839;BME280;39219;53.678;9.856;2022-12-18T09:05:12;102860.97;;;-3.15;98.75
52839;BME280;39219;53.678;9.856;2022-12-18T09:07:40;102871.50;;;-2.86;96.56
52839;BME280;39219;53.678;9.856;2022-12-18T09:10:07;102867.72;;;-2.78;94.86
52839;BME280;39219;53.678;9.856;2022-12-18T09:12:34;102872.41;;;-2.99;94.67
52839;BME280;39219;53.678;9.856;2022-12-18T09:15:00;102865.41;;;-2.87;94.33
52839;BME280;39219;53.678;9.856;2022-12-18T09:17:26;102862.31;;;-2.68;92.37
52839;BME280;39219;53.678;9.856;2022-12-18T09:19:53;102849.19;;;-2.42;93.23
52839;BME280;39219;53.678;9.856;2022-12-18T09:22:19;102857.38;;;-2.36;91.44
52839;BME280;39219;53.678;9.856;2022-12-18T09:24:48;102854.25;;;-2.30;91.85
52839;BME280;39219;53.678;9.856;2022-12-18T09:27:14;102856.97;;;-2.29;89.37
52839;BME280;39219;53.678;9.856;2022-12-18T09:29:41;102860.31;;;-2.45;88.64
52839;BME280;39219;53.678;9.856;2022-12-18T09:32:07;102856.78;;;-2.59;89.89
52839;BME280;39219;53.678;9.856;2022-12-18T09:34:34;102861.00;;;-2.61;89.85
52839;BME280;39219;53.678;9.856;2022-12-18T09:37:00;102856.19;;;-2.41;89.81
52839;BME280;39219;53.678;9.856;2022-12-18T09:39:27;102857.59;;;-2.04;90.11
52839;BME280;39219;53.678;9.856;2022-12-18T09:41:57;102870.25;;;-1.82;87.88
52839;BME280;39219;53.678;9.856;2022-12-18T09:44:26;102871.19;;;-1.67;87.01
52839;BME280;39219;53.678;9.856;2022-12-18T09:47:04;102866.31;;;-1.75;86.64
52839;BME280;39219;53.678;9.856;2022-12-18T09:49:34;102860.78;;;-1.67;86.27
52839;BME280;39219;53.678;9.856;2022-12-18T09:52:08;102861.47;;;-1.98;86.19
52839;BME280;39219;53.678;9.856;2022-12-18T09:54:39;102866.88;;;-1.95;86.35
52839;BME280;39219;53.678;9.856;2022-12-18T09:57:12;102867.56;;;-1.84;88.15
52839;BME280;39219;53.678;9.856;2022-12-18T09:59:40;102869.16;;;-1.86;86.49
52839;BME280;39219;53.678;9.856;2022-12-18T10:02:14;102862.53;;;-1.81;86.32
52839;BME280;39219;53.678;9.856;2022-12-18T10:04:41;102860.59;;;-1.98;86.17
52839;BME280;39219;53.678;9.856;2022-12-18T10:07:12;102869.25;;;-1.84;87.69
52839;BME280;39219;53.678;9.856;2022-12-18T10:09:46;102859.44;;;-1.88;85.43
52839;BME280;39219;53.678;9.856;2022-12-18T10:12:21;102862.00;;;-2.03;86.52
52839;BME280;39219;53.678;9.856;2022-12-18T10:14:54;102861.66;;;-1.95;85.47
52839;BME280;39219;53.678;9.856;2022-12-18T10:17:27;102868.66;;;-1.65;87.40
52839;BME280;39219;53.678;9.856;2022-12-18T10:19:57;102875.81;;;-1.47;85.98
52839;BME280;39219;53.678;9.856;2022-12-18T10:22:38;102883.16;;;-1.70;84.99
52839;BME280;39219;53.678;9.856;2022-12-18T10:25:17;102882.34;;;-1.69;86.43
52839;BME280;39219;53.678;9.856;2022-12-18T10:27:47;102881.81;;;-1.64;87.34
52839;BME280;39219;53.678;9.856;2022-12-18T10:30:16;102879.97;;;-1.80;86.83
52839;BME280;39219;53.678;9.856;2022-12-18T10:32:43;102875.13;;;-1.73;86.06
52839;BME280;39219;53.678;9.856;2022-12-18T10:35:17;102872.81;;;-1.69;85.33
52839;BME280;39219;53.678;9.856;2022-12-18T10:38:07;102877.00;;;-1.71;85.55
52839;BME280;39219;53.678;9.856;2022-12-18T10:40:51;102878.28;;;-1.64;86.11
52839;BME280;39219;53.678;9.856;2022-12-18T10:43:24;102874.91;;;-1.48;85.76
52839;BME280;39219;53.678;9.856;2022-12-18T10:46:00;102879.97;;;-1.36;84.78
52839;BME280;39219;53.678;9.856;2022-12-18T10:48:28;102875.13;;;-1.30;84.08
52839;BME280;39219;53.678;9.856;2022-12-18T10:50:55;102873.88;;;-1.22;83.74
52839;BME280;39219;53.678;9.856;2022-12-18T10:53:24;102861.81;;;-1.05;83.99
52839;BME280;39219;53.678;9.856;2022-12-18T10:55:54;102860.28;;;-1.01;84.01
52839;BME280;39219;53.678;9.856;2022-12-18T10:58:24;102855.88;;;-0.87;83.25
52839;BME280;39219;53.678;9.856;2022-12-18T11:01:03;102851.84;;;-0.65;81.68
52839;BME280;39219;53.678;9.856;2022-12-18T11:03:32;102843.50;;;-0.60;80.40
52839;BME280;39219;53.678;9.856;2022-12-18T11:06:09;102848.16;;;-0.54;80.90
52839;BME280;39219;53.678;9.856;2022-12-18T11:08:36;102843.94;;;-0.35;81.67
52839;BME280;39219;53.678;9.856;2022-12-18T11:11:07;102849.91;;;-0.38;79.42
52839;BME280;39219;53.678;9.856;2022-12-18T11:13:35;102850.81;;;-0.37;80.55
52839;BME280;39219;53.678;9.856;2022-12-18T11:16:01;102844.25;;;-0.46;79.97
52839;BME280;39219;53.678;9.856;2022-12-18T11:18:29;102859.16;;;-0.28;80.60
52839;BME280;39219;53.678;9.856;2022-12-18T11:20:59;102859.31;;;-0.25;78.16
52839;BME280;39219;53.678;9.856;2022-12-18T11:23:27;102860.53;;;-0.35;80.09
52839;BME280;39219;53.678;9.856;2022-12-18T11:25:56;102843.59;;;-0.41;78.26
52839;BME280;39219;53.678;9.856;2022-12-18T11:28:29;102839.50;;;-0.53;79.32
52839;BME280;39219;53.678;9.856;2022-12-18T11:31:20;102841.28;;;-0.68;80.11
52839;BME280;39219;53.678;9.856;2022-12-18T11:33:55;102837.84;;;-0.82;79.16
52839;BME280;39219;53.678;9.856;2022-12-18T11:36:23;102846.31;;;-0.86;79.88
52839;BME280;39219;53.678;9.856;2022-12-18T11:38:53;102848.94;;;-0.86;80.44
52839;BME280;39219;53.678;9.856;2022-12-18T11:41:27;102840.75;;;-0.78;80.31
52839;BME280;39219;53.678;9.856;2022-12-18T11:44:11;102842.97;;;-0.69;79.46
52839;BME280;39219;53.678;9.856;2022-12-18T11:46:46;102836.69;;;-0.72;80.03
52839;BME280;39219;53.678;9.856;2022-12-18T11:49:17;102834.25;;;-0.69;80.65
52839;BME280;39219;53.678;9.856;2022-12-18T11:51:50;102833.91;;;-0.44;79.38
52839;BME280;39219;53.678;9.856;2022-12-18T11:54:18;102831.59;;;-0.54;78.69
52839;BME280;39219;53.678;9.856;2022-12-18T11:56:48;102827.09;;;-0.57;79.26
52839;BME280;39219;53.678;9.856;2022-12-18T11:59:24;102817.38;;;-0.60;78.69
52839;BME280;39219;53.678;9.856;2022-12-18T12:02:03;102811.13;;;-0.47;79.00
52839;BME280;39219;53.678;9.856;2022-12-18T12:04:50;102813.88;;;-0.60;79.06
52839;BME280;39219;53.678;9.856;2022-12-18T12:07:35;102799.59;;;-0.67;78.01
52839;BME280;39219;53.678;9.856;2022-12-18T12:10:18;102792.06;;;-0.77;79.68
52839;BME280;39219;53.678;9.856;2022-12-18T12:12:59;102794.59;;;-0.79;79.42
52839;BME280;39219;53.678;9.856;2022-12-18T12:15:37;102793.44;;;-0.84;79.35
52839;BME280;39219;53.678;9.856;2022-12-18T12:18:16;102793.16;;;-0.88;79.94
52839;BME280;39219;53.678;9.856;2022-12-18T12:20:51;102790.31;;;-0.93;80.98
52839;BME280;39219;53.678;9.856;2022-12-18T12:23:29;102786.16;;;-0.90;80.90
52839;BME280;39219;53.678;9.856;2022-12-18T12:26:02;102780.22;;;-0.87;79.76
52839;BME280;39219;53.678;9.856;2022-12-18T12:28:48;102763.00;;;-0.83;80.43
52839;BME280;39219;53.678;9.856;2022-12-18T12:31:24;102760.81;;;-0.92;80.70
52839;BME280;39219;53.678;9.856;2022-12-18T12:34:00;102756.56;;;-0.90;81.51
52839;BME280;39219;53.678;9.856;2022-12-18T12:36:36;102752.06;;;-0.93;81.10
52839;BME280;39219;53.678;9.856;2022-12-18T12:39:11;102750.19;;;-0.95;79.78
52839;BME280;39219;53.678;9.856;2022-12-18T12:41:41;102735.53;;;-0.93;80.98
52839;BME280;39219;53.678;9.856;2022-12-18T12:44:29;102728.09;;;-0.70;80.96
52839;BME280;39219;53.678;9.856;2022-12-18T12:47:01;102712.75;;;-0.48;80.92
52839;BME280;39219;53.678;9.856;2022-12-18T12:49:33;102721.47;;;-0.31;79.27
52839;BME280;39219;53.678;9.856;2022-12-18T12:52:04;102722.81;;;-0.39;78.53
52839;BME280;39219;53.678;9.856;2022-12-18T12:54:32;102723.19;;;-0.48;78.88